DLH250 EDDL-EDDH
Flight info
| Callsign | DLH250 |
|---|---|
| Flight time | 0h 41m |
| Altitude | 31000 |
| Route | MEVEL4T/23L MEVEL Y850 BASUM/N0444F300 Y850 PIXUR/N0444F290 Y850 MUBZI M105 RIBSO RIBSO3P |
| Aircraft | A320/M-SDE3FGHIRWY/LB1 |
Departure
| Time | 2026-05-04 18:20 |
|---|---|
| Airport | Düsseldorf Airport (EDDL) |
Arrival
| Time | 2026-05-04 19:02 |
|---|---|
| Airport | Hamburg Helmut Schmidt Airport (EDDH) |
| Time | Latitude | Longitude | Altitude | Speed | Heading |
|---|---|---|---|---|---|
| 2026-05-04 17:53 | 51.28155 | 6.76737 | 129 ft | 0 kts | 276° |
| 2026-05-04 18:08 | 51.28154 | 6.76745 | 129 ft | 4 kts | 276° |
| 2026-05-04 18:08 | 51.28149 | 6.76787 | 127 ft | 4 kts | 290° |
| 2026-05-04 18:08 | 51.28137 | 6.76819 | 127 ft | 4 kts | 341° |
| 2026-05-04 18:08 | 51.28127 | 6.76822 | 127 ft | 0 kts | 17° |
| 2026-05-04 18:10 | 51.28127 | 6.76821 | 127 ft | 0 kts | 17° |
| 2026-05-04 18:12 | 51.28139 | 6.76827 | 128 ft | 7 kts | 17° |
| 2026-05-04 18:12 | 51.28217 | 6.76846 | 129 ft | 8 kts | 6° |
| 2026-05-04 18:12 | 51.28228 | 6.76848 | 129 ft | 0 kts | 6° |
| 2026-05-04 18:13 | 51.28246 | 6.76851 | 129 ft | 9 kts | 6° |
| 2026-05-04 18:13 | 51.28301 | 6.76861 | 129 ft | 7 kts | 7° |
| 2026-05-04 18:13 | 51.28401 | 6.76833 | 125 ft | 11 kts | 324° |
| 2026-05-04 18:14 | 51.28496 | 6.76795 | 123 ft | 15 kts | 41° |
| 2026-05-04 18:14 | 51.28556 | 6.76918 | 128 ft | 14 kts | 52° |
| 2026-05-04 18:14 | 51.28625 | 6.77061 | 129 ft | 18 kts | 53° |
| 2026-05-04 18:15 | 51.28799 | 6.77428 | 129 ft | 23 kts | 53° |
| 2026-05-04 18:15 | 51.29002 | 6.77852 | 128 ft | 25 kts | 52° |
| 2026-05-04 18:15 | 51.29086 | 6.78028 | 131 ft | 17 kts | 52° |
| 2026-05-04 18:16 | 51.29134 | 6.78128 | 133 ft | 9 kts | 53° |
| 2026-05-04 18:16 | 51.29162 | 6.78187 | 135 ft | 4 kts | 52° |
| 2026-05-04 18:16 | 51.29173 | 6.78212 | 136 ft | 4 kts | 52° |
| 2026-05-04 18:17 | 51.29337 | 6.78544 | 151 ft | 13 kts | 38° |
| 2026-05-04 18:17 | 51.29413 | 6.78571 | 152 ft | 10 kts | 356° |
| 2026-05-04 18:17 | 51.29430 | 6.78569 | 152 ft | 0 kts | 355° |
| 2026-05-04 18:18 | 51.29487 | 6.78539 | 151 ft | 23 kts | 328° |
| 2026-05-04 18:18 | 51.29477 | 6.78377 | 148 ft | 11 kts | 233° |
| 2026-05-04 18:19 | 51.29437 | 6.78294 | 146 ft | 0 kts | 232° |
| 2026-05-04 18:19 | 51.29430 | 6.78279 | 145 ft | 9 kts | 232° |
| 2026-05-04 18:20 | 51.29279 | 6.77969 | 137 ft | 72 kts | 232° |
| 2026-05-04 18:20 | 51.28836 | 6.77034 | 127 ft | 136 kts | 232° |
| 2026-05-04 18:20 | 51.28175 | 6.75621 | 261 ft | 172 kts | 230° |
| 2026-05-04 18:20 | 51.27435 | 6.74062 | 765 ft | 181 kts | 230° |
| 2026-05-04 18:21 | 51.26658 | 6.72433 | 1365 ft | 188 kts | 230° |
| 2026-05-04 18:21 | 51.25972 | 6.70641 | 2012 ft | 194 kts | 254° |
| 2026-05-04 18:21 | 51.26160 | 6.68518 | 2717 ft | 203 kts | 299° |
| 2026-05-04 18:21 | 51.27270 | 6.67137 | 3403 ft | 208 kts | 339° |
| 2026-05-04 18:22 | 51.28697 | 6.67102 | 4024 ft | 210 kts | 20° |
| 2026-05-04 18:22 | 51.30081 | 6.68087 | 4404 ft | 229 kts | 26° |
| 2026-05-04 18:22 | 51.31635 | 6.68985 | 4767 ft | 249 kts | 11° |
| 2026-05-04 18:22 | 51.33399 | 6.69361 | 5290 ft | 266 kts | 4° |
| 2026-05-04 18:23 | 51.35296 | 6.69526 | 5952 ft | 278 kts | 1° |
| 2026-05-04 18:23 | 51.37245 | 6.69628 | 6800 ft | 282 kts | 1° |
| 2026-05-04 18:23 | 51.39221 | 6.69724 | 7694 ft | 285 kts | 1° |
| 2026-05-04 18:23 | 51.41208 | 6.69733 | 8601 ft | 287 kts | 0° |
| 2026-05-04 18:24 | 51.43217 | 6.69696 | 9496 ft | 289 kts | 359° |
| 2026-05-04 18:24 | 51.45240 | 6.69655 | 10258 ft | 297 kts | 0° |
| 2026-05-04 18:24 | 51.47387 | 6.69623 | 10510 ft | 320 kts | 1° |
| 2026-05-04 18:24 | 51.49692 | 6.69607 | 10759 ft | 342 kts | 1° |
| 2026-05-04 18:25 | 51.52103 | 6.69605 | 11354 ft | 350 kts | 0° |
| 2026-05-04 18:25 | 51.54557 | 6.69609 | 12068 ft | 355 kts | 0° |
| 2026-05-04 18:25 | 51.57041 | 6.69641 | 12775 ft | 359 kts | 4° |
| 2026-05-04 18:25 | 51.59510 | 6.70300 | 13463 ft | 363 kts | 17° |
| 2026-05-04 18:26 | 51.61845 | 6.71867 | 14113 ft | 366 kts | 30° |
| 2026-05-04 18:26 | 51.63906 | 6.74273 | 14754 ft | 368 kts | 43° |
| 2026-05-04 18:26 | 51.65596 | 6.77392 | 15366 ft | 372 kts | 54° |
| 2026-05-04 18:26 | 51.67142 | 6.80777 | 15886 ft | 379 kts | 55° |
| 2026-05-04 18:27 | 51.68714 | 6.84215 | 16435 ft | 384 kts | 54° |
| 2026-05-04 18:27 | 51.70309 | 6.87695 | 17013 ft | 388 kts | 54° |
| 2026-05-04 18:27 | 51.71907 | 6.91175 | 17610 ft | 393 kts | 54° |
| 2026-05-04 18:27 | 51.73562 | 6.94784 | 18197 ft | 397 kts | 55° |
| 2026-05-04 18:28 | 51.75208 | 6.98378 | 18715 ft | 401 kts | 55° |
| 2026-05-04 18:28 | 51.76875 | 7.02027 | 19218 ft | 405 kts | 55° |
| 2026-05-04 18:28 | 51.78533 | 7.05659 | 19717 ft | 409 kts | 55° |
| 2026-05-04 18:28 | 51.80250 | 7.09434 | 20230 ft | 414 kts | 55° |
| 2026-05-04 18:29 | 51.81936 | 7.13145 | 20726 ft | 417 kts | 55° |
| 2026-05-04 18:29 | 51.83691 | 7.16995 | 21234 ft | 421 kts | 53° |
| 2026-05-04 18:29 | 51.85629 | 7.20487 | 21709 ft | 426 kts | 44° |
| 2026-05-04 18:29 | 51.87953 | 7.23495 | 22183 ft | 430 kts | 33° |
| 2026-05-04 18:30 | 51.93052 | 7.28746 | 23098 ft | 438 kts | 32° |
| 2026-05-04 18:30 | 51.95628 | 7.31414 | 23538 ft | 441 kts | 32° |
| 2026-05-04 18:30 | 51.98219 | 7.34108 | 23908 ft | 445 kts | 32° |
| 2026-05-04 18:31 | 52.00831 | 7.36826 | 24222 ft | 449 kts | 32° |
| 2026-05-04 18:31 | 52.03479 | 7.39580 | 24546 ft | 453 kts | 32° |
| 2026-05-04 18:31 | 52.06143 | 7.42352 | 24897 ft | 456 kts | 32° |
| 2026-05-04 18:31 | 52.08818 | 7.45135 | 25242 ft | 459 kts | 32° |
| 2026-05-04 18:32 | 52.11502 | 7.47991 | 25579 ft | 462 kts | 36° |
| 2026-05-04 18:32 | 52.13836 | 7.51582 | 25901 ft | 464 kts | 50° |
| 2026-05-04 18:32 | 52.15919 | 7.55620 | 26223 ft | 467 kts | 51° |
| 2026-05-04 18:32 | 52.17995 | 7.59687 | 26549 ft | 469 kts | 51° |
| 2026-05-04 18:33 | 52.20079 | 7.63804 | 26870 ft | 472 kts | 51° |
| 2026-05-04 18:33 | 52.22169 | 7.67947 | 27188 ft | 475 kts | 51° |
| 2026-05-04 18:33 | 52.24287 | 7.72110 | 27496 ft | 477 kts | 49° |
| 2026-05-04 18:33 | 52.26768 | 7.75711 | 27789 ft | 479 kts | 33° |
| 2026-05-04 18:34 | 52.29605 | 7.78595 | 28071 ft | 482 kts | 30° |
| 2026-05-04 18:34 | 52.32482 | 7.81441 | 28340 ft | 485 kts | 30° |
| 2026-05-04 18:34 | 52.35376 | 7.84282 | 28615 ft | 487 kts | 30° |
| 2026-05-04 18:34 | 52.38299 | 7.87145 | 28879 ft | 490 kts | 30° |
| 2026-05-04 18:35 | 52.41224 | 7.90016 | 29128 ft | 492 kts | 30° |
| 2026-05-04 18:35 | 52.44163 | 7.92916 | 29386 ft | 494 kts | 30° |
| 2026-05-04 18:35 | 52.47108 | 7.95831 | 29619 ft | 496 kts | 30° |
| 2026-05-04 18:35 | 52.50076 | 7.98776 | 29886 ft | 499 kts | 30° |
| 2026-05-04 18:36 | 52.53051 | 8.01738 | 30071 ft | 501 kts | 29° |
| 2026-05-04 18:36 | 52.56029 | 8.04709 | 30331 ft | 501 kts | 29° |
| 2026-05-04 18:36 | 52.58973 | 8.07650 | 30124 ft | 493 kts | 29° |
| 2026-05-04 18:36 | 52.61901 | 8.10578 | 29186 ft | 492 kts | 30° |
| 2026-05-04 18:37 | 52.64818 | 8.13498 | 28350 ft | 490 kts | 30° |
| 2026-05-04 18:37 | 52.67718 | 8.16403 | 27709 ft | 483 kts | 30° |
| 2026-05-04 18:37 | 52.70568 | 8.19264 | 27102 ft | 478 kts | 30° |
| 2026-05-04 18:37 | 52.73389 | 8.22103 | 26506 ft | 472 kts | 30° |
| 2026-05-04 18:38 | 52.76174 | 8.24913 | 25932 ft | 467 kts | 30° |
| 2026-05-04 18:38 | 52.78927 | 8.27711 | 25372 ft | 462 kts | 32° |
| 2026-05-04 18:38 | 52.81388 | 8.31052 | 24835 ft | 457 kts | 47° |
| 2026-05-04 18:38 | 52.83233 | 8.35256 | 24305 ft | 450 kts | 63° |
| 2026-05-04 18:39 | 52.84599 | 8.39886 | 23760 ft | 445 kts | 65° |
| 2026-05-04 18:39 | 52.86211 | 8.44145 | 23212 ft | 441 kts | 53° |
| 2026-05-04 18:39 | 52.88069 | 8.48232 | 22610 ft | 437 kts | 53° |
| 2026-05-04 18:39 | 52.89892 | 8.52231 | 22047 ft | 433 kts | 53° |
| 2026-05-04 18:40 | 52.91672 | 8.56137 | 21540 ft | 429 kts | 53° |
| 2026-05-04 18:40 | 52.93462 | 8.60067 | 21092 ft | 425 kts | 52° |
| 2026-05-04 18:40 | 52.95239 | 8.63977 | 20953 ft | 425 kts | 52° |
| 2026-05-04 18:40 | 52.97018 | 8.67900 | 21007 ft | 428 kts | 52° |
| 2026-05-04 18:41 | 52.98806 | 8.71851 | 21000 ft | 428 kts | 52° |
| 2026-05-04 18:41 | 53.00592 | 8.75804 | 21002 ft | 428 kts | 52° |
| 2026-05-04 18:41 | 53.02400 | 8.79816 | 21002 ft | 428 kts | 53° |
| 2026-05-04 18:41 | 53.04135 | 8.83677 | 21001 ft | 418 kts | 53° |
| 2026-05-04 18:42 | 53.05869 | 8.87546 | 21002 ft | 418 kts | 53° |
| 2026-05-04 18:42 | 53.07607 | 8.91430 | 21003 ft | 418 kts | 53° |
| 2026-05-04 18:42 | 53.09341 | 8.95307 | 21001 ft | 418 kts | 53° |
| 2026-05-04 18:42 | 53.11078 | 8.99190 | 20998 ft | 418 kts | 53° |
| 2026-05-04 18:43 | 53.12817 | 9.03075 | 20994 ft | 418 kts | 53° |
| 2026-05-04 18:43 | 53.14547 | 9.06941 | 20743 ft | 415 kts | 53° |
| 2026-05-04 18:43 | 53.16259 | 9.10776 | 20274 ft | 411 kts | 52° |
| 2026-05-04 18:43 | 53.17929 | 9.14534 | 20126 ft | 396 kts | 52° |
| 2026-05-04 18:44 | 53.19553 | 9.18198 | 19981 ft | 385 kts | 52° |
| 2026-05-04 18:44 | 53.20085 | 9.19402 | 19901 ft | 378 kts | 52° |
| 2026-05-04 18:44 | 53.22565 | 9.25016 | 19379 ft | 350 kts | 52° |
| 2026-05-04 18:44 | 53.23997 | 9.28251 | 18812 ft | 344 kts | 52° |
| 2026-05-04 18:45 | 53.25426 | 9.31475 | 18479 ft | 343 kts | 51° |
| 2026-05-04 18:45 | 53.26837 | 9.34664 | 18174 ft | 340 kts | 51° |
| 2026-05-04 18:45 | 53.27795 | 9.36837 | 17921 ft | 338 kts | 52° |
| 2026-05-04 18:45 | 53.29617 | 9.40976 | 17430 ft | 335 kts | 52° |
| 2026-05-04 18:46 | 53.30530 | 9.43052 | 17198 ft | 334 kts | 52° |
| 2026-05-04 18:46 | 53.31904 | 9.46173 | 16836 ft | 332 kts | 52° |
| 2026-05-04 18:46 | 53.33265 | 9.49270 | 16484 ft | 330 kts | 52° |
| 2026-05-04 18:46 | 53.34620 | 9.52359 | 16140 ft | 328 kts | 52° |
| 2026-05-04 18:47 | 53.35965 | 9.55431 | 15814 ft | 326 kts | 52° |
| 2026-05-04 18:47 | 53.37305 | 9.58493 | 15460 ft | 326 kts | 52° |
| 2026-05-04 18:47 | 53.38640 | 9.61553 | 15122 ft | 325 kts | 52° |
| 2026-05-04 18:47 | 53.39968 | 9.64606 | 14806 ft | 323 kts | 52° |
| 2026-05-04 18:48 | 53.41286 | 9.67638 | 14481 ft | 321 kts | 53° |
| 2026-05-04 18:48 | 53.42600 | 9.70666 | 14181 ft | 320 kts | 53° |
| 2026-05-04 18:48 | 53.43903 | 9.73671 | 13897 ft | 318 kts | 53° |
| 2026-05-04 18:48 | 53.45199 | 9.76661 | 13571 ft | 316 kts | 53° |
| 2026-05-04 18:49 | 53.46492 | 9.79644 | 13198 ft | 315 kts | 53° |
| 2026-05-04 18:49 | 53.47776 | 9.82614 | 12877 ft | 313 kts | 53° |
| 2026-05-04 18:49 | 53.49051 | 9.85565 | 12536 ft | 311 kts | 53° |
| 2026-05-04 18:49 | 53.50320 | 9.88501 | 12202 ft | 310 kts | 53° |
| 2026-05-04 18:50 | 53.51581 | 9.91427 | 11860 ft | 308 kts | 53° |
| 2026-05-04 18:50 | 53.52833 | 9.94335 | 11527 ft | 306 kts | 53° |
| 2026-05-04 18:50 | 53.54079 | 9.97226 | 11192 ft | 305 kts | 53° |
| 2026-05-04 18:50 | 53.55318 | 10.00100 | 10834 ft | 303 kts | 53° |
| 2026-05-04 18:51 | 53.56550 | 10.02963 | 10500 ft | 301 kts | 53° |
| 2026-05-04 18:51 | 53.57773 | 10.05810 | 10159 ft | 300 kts | 53° |
| 2026-05-04 18:51 | 53.58992 | 10.08673 | 9777 ft | 300 kts | 53° |
| 2026-05-04 18:51 | 53.60201 | 10.11523 | 9400 ft | 299 kts | 53° |
| 2026-05-04 18:52 | 53.61407 | 10.14369 | 9028 ft | 297 kts | 53° |
| 2026-05-04 18:52 | 53.62587 | 10.17155 | 8653 ft | 295 kts | 53° |
| 2026-05-04 18:52 | 53.63791 | 10.20003 | 8230 ft | 295 kts | 53° |
| 2026-05-04 18:52 | 53.64988 | 10.22835 | 7575 ft | 304 kts | 53° |
| 2026-05-04 18:53 | 53.66200 | 10.25703 | 7355 ft | 293 kts | 53° |
| 2026-05-04 18:53 | 53.67345 | 10.28420 | 7061 ft | 277 kts | 53° |
| 2026-05-04 18:53 | 53.68434 | 10.31015 | 6700 ft | 266 kts | 53° |
| 2026-05-04 18:53 | 53.69487 | 10.33528 | 6333 ft | 260 kts | 53° |
| 2026-05-04 18:54 | 53.70523 | 10.36005 | 5951 ft | 257 kts | 53° |
| 2026-05-04 18:54 | 53.71549 | 10.38463 | 5561 ft | 255 kts | 53° |
| 2026-05-04 18:54 | 53.72571 | 10.40913 | 5189 ft | 256 kts | 53° |
| 2026-05-04 18:54 | 53.73671 | 10.43223 | 4998 ft | 247 kts | 36° |
| 2026-05-04 18:55 | 53.75192 | 10.44419 | 5007 ft | 241 kts | 4° |
| 2026-05-04 18:55 | 53.78023 | 10.42443 | 5007 ft | 225 kts | 299° |
| 2026-05-04 18:55 | 53.78483 | 10.39973 | 5011 ft | 221 kts | 271° |
| 2026-05-04 18:56 | 53.78444 | 10.37363 | 5003 ft | 222 kts | 265° |
| 2026-05-04 18:56 | 53.78330 | 10.34775 | 4710 ft | 221 kts | 264° |
| 2026-05-04 18:56 | 53.78203 | 10.32186 | 4334 ft | 221 kts | 264° |
| 2026-05-04 18:56 | 53.77933 | 10.29656 | 3980 ft | 219 kts | 248° |
| 2026-05-04 18:57 | 53.77110 | 10.27497 | 3594 ft | 220 kts | 232° |
| 2026-05-04 18:57 | 53.76131 | 10.25503 | 3233 ft | 221 kts | 232° |
| 2026-05-04 18:57 | 53.75159 | 10.23516 | 3033 ft | 215 kts | 232° |
| 2026-05-04 18:57 | 53.74242 | 10.21642 | 3022 ft | 200 kts | 232° |
| 2026-05-04 18:58 | 53.73387 | 10.19894 | 2983 ft | 187 kts | 232° |
| 2026-05-04 18:58 | 53.72573 | 10.18231 | 2810 ft | 182 kts | 232° |
| 2026-05-04 18:58 | 53.71785 | 10.16620 | 2589 ft | 179 kts | 232° |
| 2026-05-04 18:58 | 53.71000 | 10.15019 | 2397 ft | 172 kts | 232° |
| 2026-05-04 18:59 | 53.70257 | 10.13504 | 2143 ft | 163 kts | 233° |
| 2026-05-04 18:59 | 53.69549 | 10.12062 | 1912 ft | 156 kts | 233° |
| 2026-05-04 18:59 | 53.68873 | 10.10685 | 1730 ft | 157 kts | 233° |
| 2026-05-04 18:59 | 53.68137 | 10.09183 | 1486 ft | 167 kts | 233° |
| 2026-05-04 19:00 | 53.67430 | 10.07750 | 1279 ft | 151 kts | 232° |
| 2026-05-04 19:00 | 53.66780 | 10.06429 | 1075 ft | 143 kts | 235° |
| 2026-05-04 19:00 | 53.66151 | 10.05149 | 882 ft | 141 kts | 235° |
| 2026-05-04 19:00 | 53.65532 | 10.03890 | 689 ft | 139 kts | 234° |
| 2026-05-04 19:01 | 53.64915 | 10.02638 | 512 ft | 138 kts | 233° |
| 2026-05-04 19:01 | 53.64303 | 10.01391 | 306 ft | 137 kts | 233° |
| 2026-05-04 19:01 | 53.63694 | 10.00152 | 116 ft | 137 kts | 231° |
| 2026-05-04 19:01 | 53.63125 | 9.98989 | 46 ft | 108 kts | 229° |
| 2026-05-04 19:02 | 53.62739 | 9.98214 | 41 ft | 68 kts | 230° |
| 2026-05-04 19:02 | 53.62577 | 9.97890 | 41 ft | 14 kts | 230° |
| 2026-05-04 19:02 | 53.62511 | 9.97790 | 41 ft | 10 kts | 195° |
| 2026-05-04 19:02 | 53.62441 | 9.97824 | 43 ft | 10 kts | 133° |
| 2026-05-04 19:03 | 53.62428 | 9.97901 | 46 ft | 5 kts | 84° |
| 2026-05-04 19:03 | 53.62431 | 9.97936 | 46 ft | 1 kts | 82° |
| 2026-05-04 19:03 | 53.62431 | 9.97938 | 46 ft | 0 kts | 82° |
| 2026-05-04 19:03 | 53.62437 | 9.97999 | 43 ft | 16 kts | 76° |
| 2026-05-04 19:04 | 53.62506 | 9.98180 | 47 ft | 20 kts | 54° |
| 2026-05-04 19:04 | 53.62576 | 9.98323 | 47 ft | 17 kts | 50° |
| 2026-05-04 19:04 | 53.62656 | 9.98494 | 47 ft | 20 kts | 49° |
| 2026-05-04 19:04 | 53.62755 | 9.98685 | 47 ft | 23 kts | 50° |
| 2026-05-04 19:05 | 53.62848 | 9.98874 | 47 ft | 21 kts | 50° |
| 2026-05-04 19:05 | 53.62946 | 9.99071 | 47 ft | 18 kts | 50° |
| 2026-05-04 19:05 | 53.63031 | 9.99245 | 47 ft | 21 kts | 50° |
| 2026-05-04 19:05 | 53.63080 | 9.99357 | 47 ft | 0 kts | 55° |
| 2026-05-04 19:06 | 53.63092 | 9.99386 | 47 ft | 10 kts | 55° |
| 2026-05-04 19:07 | 53.63153 | 9.99532 | 46 ft | 19 kts | 51° |
| 2026-05-04 19:07 | 53.63250 | 9.99718 | 48 ft | 22 kts | 44° |
| 2026-05-04 19:07 | 53.63355 | 9.99916 | 48 ft | 24 kts | 50° |
| 2026-05-04 19:07 | 53.63441 | 10.00131 | 48 ft | 15 kts | 78° |
| 2026-05-04 19:08 | 53.63448 | 10.00253 | 48 ft | 5 kts | 86° |
| 2026-05-04 19:08 | 53.63450 | 10.00299 | 48 ft | 2 kts | 86° |
| 2026-05-04 19:08 | 53.63451 | 10.00314 | 48 ft | 0 kts | 86° |